Time,TemperatureF,DewpointF,PressureIn,WindDirection,WindDirectionDegrees,WindSpeedMPH,WindSpeedGustMPH,Humidity,HourlyPrecipIn,Conditions,Clouds,dailyrainin,SoftwareType,DateUTC
2013-04-04 00:11:00,57.0,54.7,30.10,SSW,192,3.0,3.0,92,0.00,NA,NA,-99.99,VWS Version 10.39,2013-04-04 07:11:00,
2013-04-04 00:16:00,57.0,54.7,30.10,SSW,192,3.0,3.0,92,0.00,NA,NA,-99.99,VWS Version 10.39,2013-04-04 07:16:00,
2013-04-04 00:21:00,57.0,54.7,30.09,SSW,192,3.0,3.0,92,0.00,NA,NA,-99.99,VWS Version 10.39,2013-04-04 07:21:00,
2013-04-04 00:31:00,57.0,54.7,30.09,SSW,192,3.0,3.0,92,0.00,NA,NA,-99.99,VWS Version 10.39,2013-04-04 07:31:00,
2013-04-04 00:36:00,57.0,54.7,30.09,SSW,192,3.0,3.0,92,0.00,NA,NA,-99.99,VWS Version 10.39,2013-04-04 07:36:00,
2013-04-04 00:41:00,57.0,54.7,30.09,SSW,192,3.0,3.0,92,0.00,NA,NA,-99.99,VWS Version 10.39,2013-04-04 07:41:00,
2013-04-04 00:46:00,57.0,54.7,30.09,SSW,192,3.0,3.0,92,0.00,NA,NA,-99.99,VWS Version 10.39,2013-04-04 07:46:00,
2013-04-04 00:51:00,57.0,54.7,30.09,SSW,192,3.0,3.0,92,0.00,NA,NA,-99.99,VWS Version 10.39,2013-04-04 07:51:00,
2013-04-04 00:56:00,57.0,54.7,30.09,SSW,192,3.0,3.0,92,0.00,NA,NA,-99.99,VWS Version 10.39,2013-04-04 07:56:00,
2013-04-04 01:01:00,57.0,54.7,30.09,SSW,192,3.0,3.0,92,0.00,NA,NA,-99.99,VWS Version 10.39,2013-04-04 08:01:00,
2013-04-04 01:06:00,57.0,54.7,30.09,SSW,192,3.0,3.0,92,0.00,NA,NA,-99.99,VWS Version 10.39,2013-04-04 08:06:00,
2013-04-04 01:11:00,57.0,54.7,30.09,SSW,192,3.0,3.0,92,0.00,NA,NA,-99.99,VWS Version 10.39,2013-04-04 08:11:00,
2013-04-04 01:16:00,57.0,54.7,30.09,SSW,192,3.0,3.0,92,0.00,NA,NA,-99.99,VWS Version 10.39,2013-04-04 08:16:00,
2013-04-04 01:21:00,57.0,54.7,30.09,SSW,192,3.0,3.0,92,0.00,NA,NA,-99.99,VWS Version 10.39,2013-04-04 08:21:00,
2013-04-04 01:26:00,57.0,54.7,30.08,SSW,192,3.0,3.0,92,0.00,NA,NA,-99.99,VWS Version 10.39,2013-04-04 08:26:00,
2013-04-04 01:36:00,57.0,54.7,30.08,SSW,192,3.0,3.0,92,0.00,NA,NA,-99.99,VWS Version 10.39,2013-04-04 08:36:00,
2013-04-04 01:46:00,57.0,54.7,30.08,SSW,192,3.0,3.0,92,0.00,NA,NA,-99.99,VWS Version 10.39,2013-04-04 08:46:00,
2013-04-04 01:56:00,57.0,54.7,30.07,SSW,192,3.0,3.0,92,0.00,NA,NA,-99.99,VWS Version 10.39,2013-04-04 08:56:00,
2013-04-04 02:01:00,57.0,54.7,30.08,SSW,192,3.0,3.0,92,0.00,NA,NA,-99.99,VWS Version 10.39,2013-04-04 09:01:00,
2013-04-04 02:06:00,57.0,54.7,30.08,SSW,192,3.0,3.0,92,0.00,NA,NA,-99.99,VWS Version 10.39,2013-04-04 09:06:00,
2013-04-04 02:11:00,57.0,54.7,30.08,SSW,192,3.0,3.0,92,0.00,NA,NA,-99.99,VWS Version 10.39,2013-04-04 09:11:00,
2013-04-04 02:21:00,57.0,54.7,30.08,SSW,192,3.0,3.0,92,0.00,NA,NA,-99.99,VWS Version 10.39,2013-04-04 09:21:00,
2013-04-04 02:31:00,57.0,54.7,30.08,SSW,192,3.0,3.0,92,0.00,NA,NA,-99.99,VWS Version 10.39,2013-04-04 09:31:00,
2013-04-04 02:36:00,57.0,54.7,30.07,SSW,192,3.0,3.0,92,0.00,NA,NA,-99.99,VWS Version 10.39,2013-04-04 09:36:00,
2013-04-04 02:41:00,57.0,54.7,30.08,SSW,192,3.0,3.0,92,0.00,NA,NA,-99.99,VWS Version 10.39,2013-04-04 09:41:00,
2013-04-04 02:46:00,57.0,54.7,30.08,SSW,192,3.0,3.0,92,0.00,NA,NA,-99.99,VWS Version 10.39,2013-04-04 09:46:00,
2013-04-04 02:51:00,57.0,54.7,30.08,SSW,192,3.0,3.0,92,0.00,NA,NA,-99.99,VWS Version 10.39,2013-04-04 09:51:00,
2013-04-04 02:56:00,57.0,54.7,30.07,SSW,192,3.0,3.0,92,0.00,NA,NA,-99.99,VWS Version 10.39,2013-04-04 09:56:00,
2013-04-04 03:01:00,57.0,54.7,30.07,SSW,192,3.0,3.0,92,0.00,NA,NA,-99.99,VWS Version 10.39,2013-04-04 10:01:00,
2013-04-04 03:06:00,57.0,54.7,30.08,SSW,192,3.0,3.0,92,0.00,NA,NA,-99.99,VWS Version 10.39,2013-04-04 10:06:00,
2013-04-04 03:11:00,57.0,54.7,30.08,SSW,192,3.0,3.0,92,0.00,NA,NA,-99.99,VWS Version 10.39,2013-04-04 10:11:00,
2013-04-04 03:16:00,57.0,54.7,30.08,SSW,192,3.0,3.0,92,0.00,NA,NA,-99.99,VWS Version 10.39,2013-04-04 10:16:00,
2013-04-04 03:21:00,57.0,54.7,30.08,West,273,0.0,0.0,92,0.00,NA,NA,-99.99,VWS Version 10.39,2013-04-04 10:21:00,
2013-04-04 03:31:00,55.5,53.2,30.08,WNW,300,3.0,4.0,92,0.00,NA,NA,-99.99,VWS Version 10.39,2013-04-04 10:31:00,
2013-04-04 03:41:00,55.5,54.1,30.07,NNW,327,4.0,4.0,95,0.00,NA,NA,-99.99,VWS Version 10.39,2013-04-04 10:41:00,
2013-04-04 03:46:00,55.5,54.1,30.08,NNW,327,0.0,2.0,95,0.00,NA,NA,-99.99,VWS Version 10.39,2013-04-04 10:46:00,
2013-04-04 03:51:00,55.5,54.1,30.07,NNW,328,2.0,3.0,95,0.00,NA,NA,-99.99,VWS Version 10.39,2013-04-04 10:51:00,
2013-04-04 03:56:00,55.6,54.2,30.08,NW,321,5.0,5.0,95,0.00,NA,NA,-99.99,VWS Version 10.39,2013-04-04 10:56:00,
2013-04-04 04:16:00,55.7,54.3,30.07,NNW,348,0.0,0.0,95,0.00,NA,NA,-99.99,VWS Version 10.39,2013-04-04 11:16:00,
2013-04-04 04:21:00,55.7,54.3,30.07,NNW,348,0.0,0.0,95,0.00,NA,NA,-99.99,VWS Version 10.39,2013-04-04 11:21:00,
2013-04-04 04:26:00,55.6,54.2,30.07,NNW,348,1.0,1.0,95,0.00,NA,NA,-99.99,VWS Version 10.39,2013-04-04 11:26:00,
2013-04-04 04:31:00,55.6,54.2,30.06,NE,49,2.0,2.0,95,0.00,NA,NA,-99.99,VWS Version 10.39,2013-04-04 11:31:00,
2013-04-04 04:36:00,55.6,54.2,30.07,NE,49,0.0,0.0,95,0.00,NA,NA,-99.99,VWS Version 10.39,2013-04-04 11:36:00,
2013-04-04 04:41:00,55.6,54.2,30.06,NE,49,3.0,3.0,95,0.00,NA,NA,-99.99,VWS Version 10.39,2013-04-04 11:41:00,
2013-04-04 04:46:00,55.6,54.2,30.06,NE,34,1.0,2.0,95,0.00,NA,NA,-99.99,VWS Version 10.39,2013-04-04 11:46:00,
2013-04-04 05:01:00,55.3,53.9,30.06,ENE,65,2.0,2.0,95,0.00,NA,NA,-99.99,VWS Version 10.39,2013-04-04 12:01:00,
2013-04-04 05:06:00,55.2,53.8,30.06,ENE,65,2.0,2.0,95,0.00,NA,NA,-99.99,VWS Version 10.39,2013-04-04 12:06:00,
2013-04-04 05:11:00,55.3,53.9,30.06,NE,45,2.0,2.0,95,0.00,NA,NA,-99.99,VWS Version 10.39,2013-04-04 12:11:00,
2013-04-04 05:21:00,55.3,53.9,30.06,NE,44,1.0,1.0,95,0.00,NA,NA,-99.99,VWS Version 10.39,2013-04-04 12:21:00,
2013-04-04 05:26:00,55.4,54.0,30.06,ENE,71,1.0,1.0,95,0.00,NA,NA,-99.99,VWS Version 10.39,2013-04-04 12:26:00,
2013-04-04 05:31:00,55.4,53.1,30.06,ENE,71,0.0,0.0,92,0.00,NA,NA,-99.99,VWS Version 10.39,2013-04-04 12:31:00,
2013-04-04 05:36:00,55.4,53.1,30.06,ENE,71,0.0,0.0,92,0.00,NA,NA,-99.99,VWS Version 10.39,2013-04-04 12:36:00,
2013-04-04 05:41:00,55.4,53.1,30.06,ENE,71,0.0,0.0,92,0.00,NA,NA,-99.99,VWS Version 10.39,2013-04-04 12:41:00,
2013-04-04 05:46:00,55.4,53.1,30.06,ENE,71,0.0,0.0,92,0.00,NA,NA,-99.99,VWS Version 10.39,2013-04-04 12:46:00,
2013-04-04 05:51:00,55.4,53.1,30.06,ENE,71,0.0,0.0,92,0.00,NA,NA,-99.99,VWS Version 10.39,2013-04-04 12:51:00,
2013-04-04 05:56:00,55.4,53.1,30.06,ENE,71,0.0,0.0,92,0.00,NA,NA,-99.99,VWS Version 10.39,2013-04-04 12:56:00,
2013-04-04 06:01:00,55.4,53.1,30.06,ENE,71,0.0,0.0,92,0.00,NA,NA,-99.99,VWS Version 10.39,2013-04-04 13:01:00,
2013-04-04 06:06:00,55.4,53.1,30.06,ENE,71,0.0,0.0,92,0.00,NA,NA,-99.99,VWS Version 10.39,2013-04-04 13:06:00,
2013-04-04 06:11:00,55.4,53.1,30.06,ENE,71,0.0,0.0,92,0.00,NA,NA,-99.99,VWS Version 10.39,2013-04-04 13:11:00,
2013-04-04 06:16:00,55.4,53.1,30.06,ENE,71,0.0,0.0,92,0.00,NA,NA,-99.99,VWS Version 10.39,2013-04-04 13:16:00,
2013-04-04 06:21:00,55.4,53.1,30.06,ENE,71,0.0,0.0,92,0.00,NA,NA,-99.99,VWS Version 10.39,2013-04-04 13:21:00,
2013-04-04 06:31:00,55.4,53.1,30.06,ENE,71,0.0,0.0,92,0.00,NA,NA,-99.99,VWS Version 10.39,2013-04-04 13:31:00,
2013-04-04 06:36:00,55.4,53.1,30.07,ENE,71,0.0,0.0,92,0.00,NA,NA,-99.99,VWS Version 10.39,2013-04-04 13:36:00,
2013-04-04 06:41:00,55.4,53.1,30.07,ENE,71,0.0,0.0,92,0.00,NA,NA,-99.99,VWS Version 10.39,2013-04-04 13:41:00,
2013-04-04 06:46:00,55.4,53.1,30.07,ENE,71,0.0,0.0,92,0.00,NA,NA,-99.99,VWS Version 10.39,2013-04-04 13:46:00,
2013-04-04 06:51:00,55.4,53.1,30.07,ENE,71,0.0,0.0,92,0.00,NA,NA,-99.99,VWS Version 10.39,2013-04-04 13:51:00,
2013-04-04 06:56:00,55.4,53.1,30.07,ENE,71,0.0,0.0,92,0.00,NA,NA,-99.99,VWS Version 10.39,2013-04-04 13:56:00,
2013-04-04 07:11:00,55.4,53.1,30.08,ENE,71,0.0,0.0,92,0.00,NA,NA,-99.99,VWS Version 10.39,2013-04-04 14:11:00,
2013-04-04 07:16:00,55.4,53.1,30.08,ENE,71,0.0,0.0,92,0.00,NA,NA,-99.99,VWS Version 10.39,2013-04-04 14:16:00,
2013-04-04 07:21:00,55.4,53.1,30.09,ENE,71,0.0,0.0,92,0.00,NA,NA,-99.99,VWS Version 10.39,2013-04-04 14:21:00,
2013-04-04 07:41:00,55.4,53.1,30.10,ENE,71,0.0,0.0,92,0.00,NA,NA,-99.99,VWS Version 10.39,2013-04-04 14:41:00,
2013-04-04 07:46:00,55.4,53.1,30.10,ENE,71,0.0,0.0,92,0.00,NA,NA,-99.99,VWS Version 10.39,2013-04-04 14:46:00,
2013-04-04 07:51:00,55.4,53.1,30.10,ENE,71,0.0,0.0,92,0.00,NA,NA,-99.99,VWS Version 10.39,2013-04-04 14:51:00,
2013-04-04 08:11:00,55.4,53.1,30.11,ENE,71,0.0,0.0,92,0.00,NA,NA,-99.99,VWS Version 10.39,2013-04-04 15:11:00,
2013-04-04 08:16:00,55.4,53.1,30.11,ENE,71,0.0,0.0,92,0.00,NA,NA,-99.99,VWS Version 10.39,2013-04-04 15:16:00,
2013-04-04 08:21:00,55.4,53.1,30.11,ENE,71,0.0,0.0,92,0.00,NA,NA,-99.99,VWS Version 10.39,2013-04-04 15:21:00,
2013-04-04 08:26:00,55.4,53.1,30.11,ENE,71,0.0,0.0,92,0.00,NA,NA,-99.99,VWS Version 10.39,2013-04-04 15:26:00,
2013-04-04 08:31:00,55.4,53.1,30.11,ENE,71,0.0,0.0,92,0.00,NA,NA,-99.99,VWS Version 10.39,2013-04-04 15:31:00,
2013-04-04 08:36:00,55.4,53.1,30.11,ENE,71,0.0,0.0,92,0.00,NA,NA,-99.99,VWS Version 10.39,2013-04-04 15:36:00,
2013-04-04 08:46:00,55.4,53.1,30.11,ENE,71,0.0,0.0,92,0.00,NA,NA,-99.99,VWS Version 10.39,2013-04-04 15:46:00,
2013-04-04 08:51:00,55.4,53.1,30.11,ENE,71,0.0,0.0,92,0.00,NA,NA,-99.99,VWS Version 10.39,2013-04-04 15:51:00,
2013-04-04 08:56:00,55.4,53.1,30.11,ENE,71,0.0,0.0,92,0.00,NA,NA,-99.99,VWS Version 10.39,2013-04-04 15:56:00,
2013-04-04 09:01:00,55.4,53.1,30.10,ENE,71,0.0,0.0,92,0.00,NA,NA,-99.99,VWS Version 10.39,2013-04-04 16:01:00,
2013-04-04 09:06:00,55.4,53.1,30.10,ENE,71,0.0,0.0,92,0.00,NA,NA,-99.99,VWS Version 10.39,2013-04-04 16:06:00,
2013-04-04 09:26:00,55.4,53.1,30.10,ENE,71,0.0,0.0,92,0.00,NA,NA,-99.99,VWS Version 10.39,2013-04-04 16:26:00,
2013-04-04 09:31:00,55.4,53.1,30.10,ENE,71,0.0,0.0,92,0.00,NA,NA,-99.99,VWS Version 10.39,2013-04-04 16:31:00,
2013-04-04 09:36:00,55.4,53.1,30.10,ENE,71,0.0,0.0,92,0.00,NA,NA,-99.99,VWS Version 10.39,2013-04-04 16:36:00,
2013-04-04 09:41:00,55.4,53.1,30.10,ENE,71,0.0,0.0,92,0.00,NA,NA,-99.99,VWS Version 10.39,2013-04-04 16:41:00,
2013-04-04 09:46:00,55.4,53.1,30.10,ENE,71,0.0,0.0,92,0.00,NA,NA,-99.99,VWS Version 10.39,2013-04-04 16:46:00,
2013-04-04 09:51:00,55.4,53.1,30.10,ENE,71,0.0,0.0,92,0.00,NA,NA,-99.99,VWS Version 10.39,2013-04-04 16:51:00,
2013-04-04 09:56:00,55.4,53.1,30.11,ENE,71,0.0,0.0,92,0.00,NA,NA,-99.99,VWS Version 10.39,2013-04-04 16:56:00,
2013-04-04 10:06:00,55.4,53.1,30.11,ENE,71,0.0,0.0,92,0.00,NA,NA,-99.99,VWS Version 10.39,2013-04-04 17:06:00,
2013-04-04 10:11:00,55.4,53.1,30.11,ENE,71,0.0,0.0,92,0.00,NA,NA,-99.99,VWS Version 10.39,2013-04-04 17:11:00,
2013-04-04 10:16:00,55.4,53.1,30.11,ENE,71,0.0,0.0,92,0.00,NA,NA,-99.99,VWS Version 10.39,2013-04-04 17:16:00,
2013-04-04 10:21:00,55.4,53.1,30.11,ENE,71,0.0,0.0,92,0.00,NA,NA,-99.99,VWS Version 10.39,2013-04-04 17:21:00,
2013-04-04 10:26:00,55.4,53.1,30.11,ENE,71,0.0,0.0,92,0.00,NA,NA,-99.99,VWS Version 10.39,2013-04-04 17:26:00,
2013-04-04 10:36:00,59.1,54.6,30.12,WNW,294,0.0,0.0,85,0.00,NA,NA,-99.99,VWS Version 10.39,2013-04-04 17:36:00,
2013-04-04 10:46:00,59.4,55.2,30.12,West,272,0.0,0.0,86,0.00,NA,NA,-99.99,VWS Version 10.39,2013-04-04 17:46:00,
2013-04-04 10:51:00,59.8,55.3,30.12,WNW,286,0.0,0.0,85,0.00,NA,NA,-99.99,VWS Version 10.39,2013-04-04 17:51:00,
2013-04-04 10:56:00,59.8,55.3,30.12,West,264,0.0,0.0,85,0.00,NA,NA,-99.99,VWS Version 10.39,2013-04-04 17:56:00,
2013-04-04 11:36:00,59.9,56.0,30.11,WNW,288,0.0,0.0,87,0.00,NA,NA,-99.99,VWS Version 10.39,2013-04-04 18:36:00,
2013-04-04 11:41:00,60.7,56.5,30.10,WSW,247,0.0,0.0,86,0.00,NA,NA,-99.99,VWS Version 10.39,2013-04-04 18:41:00,
2013-04-04 11:46:00,60.4,55.9,30.10,WSW,253,0.0,0.0,85,0.00,NA,NA,-99.99,VWS Version 10.39,2013-04-04 18:46:00,
2013-04-04 11:56:00,59.8,55.3,30.10,West,272,0.0,0.0,85,0.00,NA,NA,-99.99,VWS Version 10.39,2013-04-04 18:56:00,
2013-04-04 12:06:00,60.4,55.9,30.10,WSW,244,0.0,0.0,85,0.00,NA,NA,-99.99,VWS Version 10.39,2013-04-04 19:06:00,
2013-04-04 12:11:00,60.9,56.0,30.09,West,267,0.0,0.0,84,0.00,NA,NA,-99.99,VWS Version 10.39,2013-04-04 19:11:00,
2013-04-04 12:16:00,61.0,55.8,30.09,West,280,0.0,0.0,83,0.00,NA,NA,-99.99,VWS Version 10.39,2013-04-04 19:16:00,
2013-04-04 12:21:00,61.0,55.8,30.09,West,276,0.0,0.0,83,0.00,NA,NA,-99.99,VWS Version 10.39,2013-04-04 19:21:00,
2013-04-04 12:26:00,60.0,55.5,30.09,West,271,0.0,0.0,85,0.00,NA,NA,-99.99,VWS Version 10.39,2013-04-04 19:26:00,
2013-04-04 12:31:00,59.6,55.4,30.09,West,260,0.0,0.0,86,0.00,NA,NA,-99.99,VWS Version 10.39,2013-04-04 19:31:00,
2013-04-04 12:36:00,60.2,56.0,30.09,WSW,257,0.0,0.0,86,0.00,NA,NA,-99.99,VWS Version 10.39,2013-04-04 19:36:00,
2013-04-04 12:41:00,61.0,56.5,30.09,WNW,302,0.0,0.0,85,0.00,NA,NA,-99.99,VWS Version 10.39,2013-04-04 19:41:00,
2013-04-04 12:46:00,59.5,55.0,30.09,West,273,0.0,0.0,85,0.00,NA,NA,-99.99,VWS Version 10.39,2013-04-04 19:46:00,
2013-04-04 12:51:00,59.3,55.1,30.09,West,268,0.0,0.0,86,0.00,NA,NA,-99.99,VWS Version 10.39,2013-04-04 19:51:00,
2013-04-04 12:56:00,59.8,55.9,30.09,WNW,292,0.0,0.0,87,0.00,NA,NA,-99.99,VWS Version 10.39,2013-04-04 19:56:00,
2013-04-04 13:06:00,60.3,55.8,30.09,WSW,253,0.0,0.0,85,0.00,NA,NA,-99.99,VWS Version 10.39,2013-04-04 20:06:00,
2013-04-04 13:11:00,59.7,55.5,30.08,West,276,0.0,0.0,86,0.00,NA,NA,-99.99,VWS Version 10.39,2013-04-04 20:11:00,
2013-04-04 13:16:00,59.7,55.8,30.08,WSW,257,0.0,0.0,87,0.00,NA,NA,-99.99,VWS Version 10.39,2013-04-04 20:16:00,
2013-04-04 13:21:00,59.7,55.5,30.08,WNW,290,0.0,0.0,86,0.00,NA,NA,-99.99,VWS Version 10.39,2013-04-04 20:21:00,
2013-04-04 13:46:00,60.0,55.5,30.08,WNW,298,0.0,0.0,85,0.00,NA,NA,-99.99,VWS Version 10.39,2013-04-04 20:46:00,
2013-04-04 13:56:00,59.9,55.4,30.08,WNW,293,0.0,0.0,85,0.00,NA,NA,-99.99,VWS Version 10.39,2013-04-04 20:56:00,
2013-04-04 14:01:00,59.5,55.3,30.08,WSW,256,0.0,0.0,86,0.00,NA,NA,-99.99,VWS Version 10.39,2013-04-04 21:01:00,
2013-04-04 14:06:00,59.2,55.0,30.07,West,277,0.0,0.0,86,0.00,NA,NA,-99.99,VWS Version 10.39,2013-04-04 21:06:00,
2013-04-04 14:11:00,59.5,55.6,30.07,WNW,285,0.0,0.0,87,0.00,NA,NA,-99.99,VWS Version 10.39,2013-04-04 21:11:00,
2013-04-04 14:36:00,59.6,55.4,30.06,West,279,0.0,0.0,86,0.00,NA,NA,-99.99,VWS Version 10.39,2013-04-04 21:36:00,
2013-04-04 14:41:00,59.7,55.8,30.06,West,276,0.0,0.0,87,0.00,NA,NA,-99.99,VWS Version 10.39,2013-04-04 21:41:00,
2013-04-04 14:51:00,59.5,55.3,30.06,WSW,257,0.0,0.0,86,0.00,NA,NA,-99.99,VWS Version 10.39,2013-04-04 21:51:00,
2013-04-04 14:56:00,59.8,55.9,30.06,West,269,0.0,0.0,87,0.00,NA,NA,-99.99,VWS Version 10.39,2013-04-04 21:56:00,
2013-04-04 15:06:00,60.6,56.4,30.05,West,270,0.0,0.0,86,0.00,NA,NA,-99.99,VWS Version 10.39,2013-04-04 22:06:00,
2013-04-04 15:11:00,60.4,56.2,30.05,West,261,0.0,0.0,86,0.00,NA,NA,-99.99,VWS Version 10.39,2013-04-04 22:11:00,
2013-04-04 15:16:00,60.2,56.0,30.05,West,269,0.0,0.0,86,0.00,NA,NA,-99.99,VWS Version 10.39,2013-04-04 22:16:00,
2013-04-04 15:21:00,60.1,56.2,30.05,West,264,0.0,0.0,87,0.00,NA,NA,-99.99,VWS Version 10.39,2013-04-04 22:21:00,
2013-04-04 15:31:00,60.9,56.4,30.04,West,267,0.0,0.0,85,0.00,NA,NA,-99.99,VWS Version 10.39,2013-04-04 22:31:00,
2013-04-04 15:41:00,61.1,56.9,30.04,West,264,0.0,0.0,86,0.00,NA,NA,-99.99,VWS Version 10.39,2013-04-04 22:41:00,
2013-04-04 15:46:00,61.2,57.0,30.03,West,268,0.0,0.0,86,0.00,NA,NA,-99.99,VWS Version 10.39,2013-04-04 22:46:00,
2013-04-04 15:51:00,61.5,57.0,30.03,WSW,257,0.0,0.0,85,0.00,NA,NA,-99.99,VWS Version 10.39,2013-04-04 22:51:00,
2013-04-04 15:56:00,61.8,57.2,30.03,West,263,0.0,0.0,85,0.00,NA,NA,-99.99,VWS Version 10.39,2013-04-04 22:56:00,
2013-04-04 16:06:00,62.3,57.4,30.03,WNW,286,0.0,0.0,84,0.00,NA,NA,-99.99,VWS Version 10.39,2013-04-04 23:06:00,
2013-04-04 16:11:00,63.0,57.1,30.03,WSW,256,0.0,0.0,81,0.00,NA,NA,-99.99,VWS Version 10.39,2013-04-04 23:11:00,
2013-04-04 16:16:00,62.3,56.7,30.03,WNW,284,0.0,0.0,82,0.00,NA,NA,-99.99,VWS Version 10.39,2013-04-04 23:16:00,
2013-04-04 16:21:00,61.9,56.7,30.03,WSW,252,0.0,0.0,83,0.00,NA,NA,-99.99,VWS Version 10.39,2013-04-04 23:21:00,
2013-04-04 16:31:00,63.3,57.4,30.03,WSW,246,0.0,0.0,81,0.00,NA,NA,-99.99,VWS Version 10.39,2013-04-04 23:31:00,
2013-04-04 16:36:00,63.6,57.7,30.02,WSW,249,0.0,0.0,81,0.00,NA,NA,-99.99,VWS Version 10.39,2013-04-04 23:36:00,
2013-04-04 16:41:00,63.6,57.3,30.02,WSW,250,0.0,0.0,80,0.00,NA,NA,-99.99,VWS Version 10.39,2013-04-04 23:41:00,
2013-04-04 16:46:00,63.0,57.1,30.03,West,269,0.0,0.0,81,0.00,NA,NA,-99.99,VWS Version 10.39,2013-04-04 23:46:00,
2013-04-04 16:56:00,61.5,56.6,30.02,WSW,248,0.0,0.0,84,0.00,NA,NA,-99.99,VWS Version 10.39,2013-04-04 23:56:00,
2013-04-04 17:01:00,61.4,56.5,30.02,West,264,0.0,0.0,84,0.00,NA,NA,-99.99,VWS Version 10.39,2013-04-05 00:01:00,
2013-04-04 17:06:00,61.4,56.5,30.02,West,265,0.0,0.0,84,0.00,NA,NA,-99.99,VWS Version 10.39,2013-04-05 00:06:00,
2013-04-04 17:11:00,61.5,56.6,30.03,West,259,0.0,0.0,84,0.00,NA,NA,-99.99,VWS Version 10.39,2013-04-05 00:11:00,
2013-04-04 17:21:00,61.9,57.3,30.03,WNW,284,0.0,0.0,85,0.00,NA,NA,-99.99,VWS Version 10.39,2013-04-05 00:21:00,
2013-04-04 17:26:00,61.9,56.7,30.03,West,267,0.0,0.0,83,0.00,NA,NA,-99.99,VWS Version 10.39,2013-04-05 00:26:00,
2013-04-04 17:31:00,60.9,56.0,30.03,WSW,256,0.0,0.0,84,0.00,NA,NA,-99.99,VWS Version 10.39,2013-04-05 00:31:00,
2013-04-04 17:36:00,60.4,56.2,30.03,West,267,0.0,0.0,86,0.00,NA,NA,-99.99,VWS Version 10.39,2013-04-05 00:36:00,
2013-04-04 17:41:00,60.6,56.4,30.02,West,268,0.0,0.0,86,0.00,NA,NA,-99.99,VWS Version 10.39,2013-04-05 00:41:00,
2013-04-04 17:46:00,61.4,56.5,30.02,West,271,0.0,0.0,84,0.00,NA,NA,-99.99,VWS Version 10.39,2013-04-05 00:46:00,
2013-04-04 17:51:00,61.7,56.8,30.02,West,269,0.0,0.0,84,0.00,NA,NA,-99.99,VWS Version 10.39,2013-04-05 00:51:00,
2013-04-04 17:56:00,62.6,57.7,30.03,WSW,252,0.0,0.0,84,0.00,NA,NA,-99.99,VWS Version 10.39,2013-04-05 00:56:00,
2013-04-04 18:11:00,61.9,56.7,30.03,WNW,282,0.0,0.0,83,0.00,NA,NA,-99.99,VWS Version 10.39,2013-04-05 01:11:00,
2013-04-04 18:16:00,62.2,57.0,30.03,West,277,0.0,0.0,83,0.00,NA,NA,-99.99,VWS Version 10.39,2013-04-05 01:16:00,
2013-04-04 18:31:00,62.6,56.3,30.03,West,270,0.0,0.0,80,0.00,NA,NA,-99.99,VWS Version 10.39,2013-04-05 01:31:00,
2013-04-04 18:36:00,62.2,56.3,30.03,West,278,0.0,0.0,81,0.00,NA,NA,-99.99,VWS Version 10.39,2013-04-05 01:36:00,
2013-04-04 18:41:00,62.1,56.5,30.03,West,278,0.0,0.0,82,0.00,NA,NA,-99.99,VWS Version 10.39,2013-04-05 01:41:00,
2013-04-04 18:46:00,62.1,56.5,30.02,West,278,0.0,0.0,82,0.00,NA,NA,-99.99,VWS Version 10.39,2013-04-05 01:46:00,
2013-04-04 18:51:00,61.9,56.0,30.02,WNW,283,0.0,0.0,81,0.00,NA,NA,-99.99,VWS Version 10.39,2013-04-05 01:51:00,
2013-04-04 18:56:00,61.9,56.0,30.02,WNW,283,0.0,0.0,81,0.00,NA,NA,-99.99,VWS Version 10.39,2013-04-05 01:56:00,
2013-04-04 19:06:00,61.9,56.0,30.02,WNW,283,0.0,0.0,81,0.00,NA,NA,-99.99,VWS Version 10.39,2013-04-05 02:06:00,
2013-04-04 19:11:00,61.9,56.0,30.02,WNW,283,0.0,0.0,81,0.00,NA,NA,-99.99,VWS Version 10.39,2013-04-05 02:11:00,
2013-04-04 19:16:00,61.9,56.0,30.03,WNW,283,0.0,0.0,81,0.00,NA,NA,-99.99,VWS Version 10.39,2013-04-05 02:16:00,
2013-04-04 19:21:00,61.9,56.0,30.03,WNW,283,0.0,0.0,81,0.00,NA,NA,-99.99,VWS Version 10.39,2013-04-05 02:21:00,
2013-04-04 19:26:00,61.9,56.0,30.03,WNW,283,0.0,0.0,81,0.00,NA,NA,-99.99,VWS Version 10.39,2013-04-05 02:26:00,
2013-04-04 19:31:00,61.9,56.0,30.03,WNW,283,0.0,0.0,81,0.00,NA,NA,-99.99,VWS Version 10.39,2013-04-05 02:31:00,
2013-04-04 19:36:00,61.9,56.0,30.03,WNW,283,0.0,0.0,81,0.00,NA,NA,-99.99,VWS Version 10.39,2013-04-05 02:36:00,
2013-04-04 19:41:00,61.9,56.0,30.03,WNW,283,0.0,0.0,81,0.00,NA,NA,-99.99,VWS Version 10.39,2013-04-05 02:41:00,
2013-04-04 19:46:00,61.9,56.0,30.03,WNW,283,0.0,0.0,81,0.00,NA,NA,-99.99,VWS Version 10.39,2013-04-05 02:46:00,
2013-04-04 19:51:00,61.9,56.0,30.03,WNW,283,0.0,0.0,81,0.00,NA,NA,-99.99,VWS Version 10.39,2013-04-05 02:51:00,
2013-04-04 19:56:00,61.9,56.0,30.04,WNW,283,0.0,0.0,81,0.00,NA,NA,-99.99,VWS Version 10.39,2013-04-05 02:56:00,
2013-04-04 20:11:00,61.9,56.0,30.04,WNW,283,0.0,0.0,81,0.00,NA,NA,-99.99,VWS Version 10.39,2013-04-05 03:11:00,
2013-04-04 20:16:00,61.9,56.0,30.04,WNW,283,0.0,0.0,81,0.00,NA,NA,-99.99,VWS Version 10.39,2013-04-05 03:16:00,
2013-04-04 20:21:00,61.9,56.0,30.05,WNW,283,0.0,0.0,81,0.00,NA,NA,-99.99,VWS Version 10.39,2013-04-05 03:21:00,
2013-04-04 20:26:00,61.9,56.0,30.05,WNW,283,0.0,0.0,81,0.00,NA,NA,-99.99,VWS Version 10.39,2013-04-05 03:26:00,
2013-04-04 20:31:00,61.9,56.0,30.05,WNW,283,0.0,0.0,81,0.00,NA,NA,-99.99,VWS Version 10.39,2013-04-05 03:31:00,
2013-04-04 20:36:00,61.9,56.0,30.06,WNW,283,0.0,0.0,81,0.00,NA,NA,-99.99,VWS Version 10.39,2013-04-05 03:36:00,
2013-04-04 20:41:00,61.9,56.0,30.06,WNW,283,0.0,0.0,81,0.00,NA,NA,-99.99,VWS Version 10.39,2013-04-05 03:41:00,
2013-04-04 20:46:00,61.9,56.0,30.06,WNW,283,0.0,0.0,81,0.00,NA,NA,-99.99,VWS Version 10.39,2013-04-05 03:46:00,
2013-04-04 20:51:00,61.9,56.0,30.06,WNW,283,0.0,0.0,81,0.00,NA,NA,-99.99,VWS Version 10.39,2013-04-05 03:51:00,
2013-04-04 20:56:00,61.9,56.0,30.06,WNW,283,0.0,0.0,81,0.00,NA,NA,-99.99,VWS Version 10.39,2013-04-05 03:56:00,
2013-04-04 21:01:00,61.9,56.0,30.06,WNW,283,0.0,0.0,81,0.00,NA,NA,-99.99,VWS Version 10.39,2013-04-05 04:01:00,
2013-04-04 21:06:00,61.9,56.0,30.06,WNW,283,0.0,0.0,81,0.00,NA,NA,-99.99,VWS Version 10.39,2013-04-05 04:06:00,
2013-04-04 21:11:00,61.9,56.0,30.06,WNW,283,0.0,0.0,81,0.00,NA,NA,-99.99,VWS Version 10.39,2013-04-05 04:11:00,
2013-04-04 21:16:00,61.9,56.0,30.06,WNW,283,0.0,0.0,81,0.00,NA,NA,-99.99,VWS Version 10.39,2013-04-05 04:16:00,
2013-04-04 21:21:00,61.9,56.0,30.06,WNW,283,0.0,0.0,81,0.00,NA,NA,-99.99,VWS Version 10.39,2013-04-05 04:21:00,
2013-04-04 21:26:00,61.9,56.0,30.07,WNW,283,0.0,0.0,81,0.00,NA,NA,-99.99,VWS Version 10.39,2013-04-05 04:26:00,
2013-04-04 21:31:00,61.9,56.0,30.07,WNW,283,0.0,0.0,81,0.00,NA,NA,-99.99,VWS Version 10.39,2013-04-05 04:31:00,
2013-04-04 21:36:00,61.9,56.0,30.07,WNW,283,0.0,0.0,81,0.00,NA,NA,-99.99,VWS Version 10.39,2013-04-05 04:36:00,
2013-04-04 21:41:00,61.9,56.0,30.07,WNW,283,0.0,0.0,81,0.00,NA,NA,-99.99,VWS Version 10.39,2013-04-05 04:41:00,
2013-04-04 21:46:00,61.9,56.0,30.07,WNW,283,0.0,0.0,81,0.00,NA,NA,-99.99,VWS Version 10.39,2013-04-05 04:46:00,
2013-04-04 21:51:00,61.9,56.0,30.07,WNW,283,0.0,0.0,81,0.00,NA,NA,-99.99,VWS Version 10.39,2013-04-05 04:51:00,
2013-04-04 21:56:00,61.9,56.0,30.08,WNW,283,0.0,0.0,81,0.00,NA,NA,-99.99,VWS Version 10.39,2013-04-05 04:56:00,
2013-04-04 22:11:00,61.9,56.0,30.08,WNW,283,0.0,0.0,81,0.00,NA,NA,-99.99,VWS Version 10.39,2013-04-05 05:11:00,
2013-04-04 22:16:00,61.9,56.0,30.08,WNW,283,0.0,0.0,81,0.00,NA,NA,-99.99,VWS Version 10.39,2013-04-05 05:16:00,
2013-04-04 22:51:00,61.9,56.0,30.08,WNW,283,0.0,0.0,81,0.00,NA,NA,-99.99,VWS Version 10.39,2013-04-05 05:51:00,
2013-04-04 22:56:00,61.9,56.0,30.08,WNW,283,0.0,0.0,81,0.00,NA,NA,-99.99,VWS Version 10.39,2013-04-05 05:56:00,
2013-04-04 23:06:00,61.9,56.0,30.08,WNW,283,0.0,0.0,81,0.00,NA,NA,-99.99,VWS Version 10.39,2013-04-05 06:06:00,
2013-04-04 23:11:00,61.9,56.0,30.08,WNW,283,0.0,0.0,81,0.00,NA,NA,-99.99,VWS Version 10.39,2013-04-05 06:11:00,
2013-04-04 23:16:00,61.9,56.0,30.08,WNW,283,0.0,0.0,81,0.00,NA,NA,-99.99,VWS Version 10.39,2013-04-05 06:16:00,
2013-04-04 23:21:00,61.9,56.0,30.08,WNW,283,0.0,0.0,81,0.00,NA,NA,-99.99,VWS Version 10.39,2013-04-05 06:21:00,
2013-04-04 23:26:00,61.9,56.0,30.08,WNW,283,0.0,0.0,81,0.00,NA,NA,-99.99,VWS Version 10.39,2013-04-05 06:26:00,
2013-04-04 23:31:00,61.9,56.0,30.08,WNW,283,0.0,0.0,81,0.00,NA,NA,-99.99,VWS Version 10.39,2013-04-05 06:31:00,
2013-04-04 23:36:00,61.9,56.0,30.08,WNW,283,0.0,0.0,81,0.00,NA,NA,-99.99,VWS Version 10.39,2013-04-05 06:36:00,
2013-04-04 23:41:00,61.9,56.0,30.08,WNW,283,0.0,0.0,81,0.00,NA,NA,-99.99,VWS Version 10.39,2013-04-05 06:41:00,
2013-04-04 23:46:00,61.9,56.0,30.08,WNW,283,0.0,0.0,81,0.00,NA,NA,-99.99,VWS Version 10.39,2013-04-05 06:46:00,
2013-04-04 23:51:00,61.9,56.0,30.08,WNW,283,0.0,0.0,81,0.00,NA,NA,-99.99,VWS Version 10.39,2013-04-05 06:51:00,
2013-04-04 23:56:00,61.9,56.0,30.08,WNW,283,0.0,0.0,81,0.00,NA,NA,-99.99,VWS Version 10.39,2013-04-05 06:56:00,